createdAt,value
2019-05-06T00:00:55.352Z,0.60
2019-05-06T00:04:05.004Z,0.53
2019-05-06T00:07:13.803Z,0.40
2019-05-06T00:10:26.552Z,0.53
2019-05-06T00:13:34.428Z,0.57
2019-05-06T00:16:43.861Z,0.60
2019-05-06T00:19:50.924Z,0.57
2019-05-06T00:23:04.297Z,0.53
2019-05-06T00:26:25.381Z,1.13
2019-05-06T00:29:49.899Z,0.73
2019-05-06T00:33:06.504Z,0.87
2019-05-06T00:36:14.218Z,0.80
2019-05-06T00:39:44.554Z,0.50
2019-05-06T00:43:09.827Z,0.80
2019-05-06T00:46:26.871Z,0.30
2019-05-06T00:49:34.604Z,0.97
2019-05-06T00:52:42.091Z,0.30
2019-05-06T00:55:49.488Z,0.40
2019-05-06T00:58:55.703Z,0.60
2019-05-06T01:02:14.054Z,0.60
2019-05-06T01:05:21.645Z,0.63
2019-05-06T01:08:29.030Z,0.60
2019-05-06T01:11:36.342Z,0.50
2019-05-06T01:14:47.540Z,0.37
2019-05-06T01:18:04.328Z,0.40
2019-05-06T01:21:21.033Z,0.60
2019-05-06T01:24:37.659Z,0.43
2019-05-06T01:28:00.561Z,0.20
2019-05-06T01:31:17.158Z,0.60
2019-05-06T01:34:34.275Z,0.50
2019-05-06T01:37:44.148Z,0.40
2019-05-06T01:41:04.112Z,0.83
2019-05-06T01:44:13.611Z,0.53
2019-05-06T01:47:30.092Z,0.53
2019-05-06T01:50:54.013Z,0.47
2019-05-06T01:54:10.933Z,0.60
2019-05-06T01:57:27.662Z,0.70
2019-05-06T02:00:44.234Z,0.70
2019-05-06T02:03:53.677Z,0.60
2019-05-06T02:07:09.932Z,0.57
2019-05-06T02:10:34.943Z,0.50
2019-05-06T02:13:44.188Z,0.87
2019-05-06T02:16:51.421Z,0.30
2019-05-06T02:19:59.061Z,0.67
2019-05-06T02:23:18.960Z,0.90
2019-05-06T02:26:24.682Z,0.77
2019-05-06T02:29:50.193Z,0.60
2019-05-06T02:33:15.542Z,0.73
2019-05-06T02:36:34.312Z,0.50
2019-05-06T02:39:43.711Z,0.80
2019-05-06T02:42:50.208Z,1.10
2019-05-06T02:46:06.791Z,0.80
2019-05-06T02:49:40.143Z,0.70
2019-05-06T02:52:47.521Z,0.50
2019-05-06T02:55:55.031Z,0.50
2019-05-06T02:59:03.957Z,0.70
2019-05-06T03:02:14.082Z,0.60
2019-05-06T03:05:23.499Z,0.70
2019-05-06T03:08:38.726Z,1.00
2019-05-06T03:11:45.035Z,0.43
2019-05-06T03:14:53.202Z,0.70
2019-05-06T03:18:03.162Z,0.43
2019-05-06T03:21:26.528Z,0.50
2019-05-06T03:24:59.223Z,0.63
2019-05-06T03:28:23.786Z,0.73
2019-05-06T03:31:45.772Z,0.40
2019-05-06T03:35:19.569Z,0.63
2019-05-06T03:38:16.905Z,0.73
2019-05-06T03:41:33.938Z,0.50
2019-05-06T03:44:43.693Z,0.50
2019-05-06T03:47:55.712Z,1.13
2019-05-06T03:51:04.193Z,1.17
2019-05-06T03:54:12.775Z,1.20
2019-05-06T03:57:23.127Z,0.67
2019-05-06T04:00:33.363Z,1.33
2019-05-06T04:03:47.161Z,0.60
2019-05-06T04:06:58.826Z,0.80
2019-05-06T04:10:15.430Z,0.60
2019-05-06T04:13:33.304Z,0.60
2019-05-06T04:16:49.533Z,1.00
2019-05-06T04:20:04.033Z,0.70
2019-05-06T04:23:36.303Z,0.60
2019-05-06T04:26:54.772Z,0.47
2019-05-06T04:30:04.666Z,0.93
2019-05-06T04:33:16.545Z,0.43
2019-05-06T04:36:33.462Z,0.70
2019-05-06T04:39:39.918Z,0.73
2019-05-06T04:42:46.680Z,1.13
2019-05-06T04:45:54.387Z,0.97
2019-05-06T04:49:03.936Z,0.63
2019-05-06T04:52:13.874Z,0.57
2019-05-06T04:55:22.627Z,0.80
2019-05-06T04:58:29.634Z,0.83
2019-05-06T05:01:46.510Z,0.80
2019-05-06T05:04:53.004Z,0.80
2019-05-06T05:08:02.495Z,0.50
2019-05-06T05:11:27.296Z,0.97
2019-05-06T05:14:52.148Z,1.47
2019-05-06T05:18:24.782Z,0.87
2019-05-06T05:21:48.406Z,1.00
2019-05-06T05:24:55.811Z,0.50
2019-05-06T05:28:03.527Z,1.10
2019-05-06T05:31:12.253Z,0.70
2019-05-06T05:34:19.916Z,0.80
2019-05-06T05:37:41.964Z,0.82
2019-05-06T05:40:58.859Z,0.83
2019-05-06T05:44:22.766Z,1.33
2019-05-06T05:47:30.298Z,0.57
2019-05-06T05:50:42.044Z,0.60
2019-05-06T05:53:49.185Z,0.60
2019-05-06T05:56:56.008Z,1.20
2019-05-06T06:00:04.162Z,0.60
2019-05-06T06:03:22.042Z,0.80
2019-05-06T06:06:29.539Z,0.70
2019-05-06T06:09:44.972Z,0.70
2019-05-06T06:12:52.962Z,0.70
2019-05-06T06:16:19.426Z,0.50
2019-05-06T06:19:48.986Z,0.70
2019-05-06T06:22:59.417Z,0.93
2019-05-06T06:26:06.977Z,0.60
2019-05-06T06:29:12.866Z,0.70
2019-05-06T06:32:25.364Z,0.87
2019-05-06T06:35:51.519Z,0.87
2019-05-06T06:39:19.337Z,0.53
2019-05-06T06:42:26.856Z,0.93
2019-05-06T06:45:45.513Z,0.57
2019-05-06T06:49:03.227Z,0.60
2019-05-06T06:52:14.206Z,1.03
2019-05-06T06:55:38.448Z,0.50
2019-05-06T06:59:05.409Z,0.93
2019-05-06T07:02:39.770Z,1.00
2019-05-06T07:05:52.914Z,0.60
2019-05-06T07:09:00.207Z,0.53
2019-05-06T07:12:16.962Z,0.90
2019-05-06T07:15:40.024Z,0.57
2019-05-06T07:18:56.689Z,0.57
2019-05-06T07:22:06.522Z,1.03
2019-05-06T07:30:05.999Z,0.63
2019-05-06T07:33:13.441Z,0.83
2019-05-06T07:36:32.348Z,0.70
2019-05-06T07:39:39.706Z,0.60
2019-05-06T07:42:49.173Z,0.80
2019-05-06T07:45:58.095Z,0.70
2019-05-06T07:49:05.493Z,0.70
2019-05-06T07:52:12.350Z,1.00
2019-05-06T07:55:19.831Z,0.70
2019-05-06T07:58:27.110Z,0.37
2019-05-06T08:01:44.374Z,0.63
2019-05-06T08:04:53.208Z,0.40
2019-05-06T08:08:03.300Z,0.50
2019-05-06T08:11:12.214Z,0.60
2019-05-06T08:14:19.019Z,0.37
2019-05-06T08:17:33.099Z,0.57
2019-05-06T08:20:49.482Z,0.40
2019-05-06T08:23:56.313Z,0.60
2019-05-06T08:27:03.739Z,0.70
2019-05-06T08:30:22.907Z,0.40
2019-05-06T08:33:38.794Z,0.40
2019-05-06T08:37:07.128Z,0.47
2019-05-06T08:40:14.579Z,0.40
2019-05-06T08:43:22.087Z,0.47
2019-05-06T08:46:29.355Z,0.50
2019-05-06T08:49:53.212Z,0.40
2019-05-06T08:53:23.976Z,0.50
2019-05-06T08:56:29.220Z,0.53
2019-05-06T08:59:36.776Z,0.50
2019-05-06T09:02:53.519Z,0.37
2019-05-06T09:06:24.473Z,0.70
2019-05-06T09:09:28.571Z,0.50
2019-05-06T09:12:45.190Z,0.50
2019-05-06T09:16:02.594Z,0.37
2019-05-06T09:19:09.974Z,0.33
2019-05-06T09:22:17.223Z,0.40
2019-05-06T09:25:24.622Z,0.50
2019-05-06T09:28:43.397Z,0.60
2019-05-06T09:31:52.959Z,0.63
2019-05-06T09:35:02.949Z,0.40
2019-05-06T09:38:12.626Z,0.47
2019-05-06T09:41:19.647Z,0.53
2019-05-06T09:44:27.258Z,0.60
2019-05-06T09:47:53.123Z,0.40
2019-05-06T09:51:02.896Z,0.40
2019-05-06T09:54:24.712Z,0.40
2019-05-06T09:57:34.146Z,0.30
2019-05-06T10:00:44.631Z,0.30
2019-05-06T10:03:53.054Z,0.30
2019-05-06T10:07:02.551Z,0.40
2019-05-06T10:10:09.631Z,0.50
2019-05-06T10:13:16.921Z,0.40
2019-05-06T10:16:24.413Z,0.30
2019-05-06T10:19:32.099Z,0.30
2019-05-06T10:22:38.079Z,0.20
2019-05-06T10:25:45.541Z,0.20
2019-05-06T10:29:12.804Z,0.20
2019-05-06T10:32:29.283Z,0.10
2019-05-06T10:35:54.856Z,0.20
2019-05-06T10:39:06.022Z,0.20
2019-05-06T10:42:17.303Z,0.10
2019-05-06T10:45:34.347Z,0.30
2019-05-06T10:48:42.413Z,0.17
2019-05-06T10:51:57.760Z,0.20
2019-05-06T10:55:23.149Z,0.23
2019-05-06T10:58:32.676Z,0.10
2019-05-06T11:01:42.628Z,0.20
2019-05-06T11:04:50.120Z,0.30
2019-05-06T11:07:57.585Z,0.30
2019-05-06T11:11:14.735Z,0.20
2019-05-06T11:14:23.335Z,0.20
2019-05-06T11:17:40.014Z,0.20
2019-05-06T11:20:56.714Z,0.10
2019-05-06T11:24:13.410Z,0.90
2019-05-06T11:27:39.566Z,0.27
2019-05-06T11:31:25.739Z,0.30
2019-05-06T11:34:48.034Z,0.30
2019-05-06T11:38:14.501Z,0.30
2019-05-06T11:41:23.427Z,0.20
2019-05-06T11:44:32.335Z,0.27
2019-05-06T11:47:38.208Z,0.40
2019-05-06T11:50:59.414Z,0.63
2019-05-06T11:54:20.726Z,1.10
2019-05-06T11:57:27.383Z,1.57
2019-05-06T12:00:39.451Z,1.77
2019-05-06T12:03:46.924Z,0.87
2019-05-06T12:07:11.065Z,0.93
2019-05-06T12:10:13.743Z,0.83
2019-05-06T12:13:22.971Z,0.57
2019-05-06T12:16:30.065Z,0.40
2019-05-06T12:19:46.851Z,0.50
2019-05-06T12:23:04.554Z,0.20
2019-05-06T12:26:13.225Z,0.20
2019-05-06T12:29:20.641Z,0.10
2019-05-06T12:32:33.847Z,0.30
2019-05-06T12:35:44.453Z,0.40
2019-05-06T12:39:14.783Z,0.10
2019-05-06T12:42:45.093Z,0.40
2019-05-06T12:45:53.166Z,0.20
2019-05-06T12:49:17.849Z,0.10
2019-05-06T12:52:34.609Z,0.20
2019-05-06T12:55:43.049Z,0.30
2019-05-06T12:58:52.391Z,0.30
2019-05-06T13:01:59.171Z,0.20
2019-05-06T13:05:06.981Z,0.30
2019-05-06T13:08:20.036Z,0.33
2019-05-06T13:11:23.389Z,0.40
2019-05-06T13:14:29.238Z,0.30
2019-05-06T13:17:36.681Z,0.20
2019-05-06T13:20:49.786Z,0.40
2019-05-06T13:23:55.963Z,0.20
2019-05-06T13:27:02.554Z,0.10
2019-05-06T13:30:12.931Z,0.20
2019-05-06T13:33:44.087Z,0.30
2019-05-06T13:37:08.141Z,0.40
2019-05-06T13:40:27.148Z,0.37
2019-05-06T13:43:47.473Z,0.13
2019-05-06T13:46:55.590Z,0.20
2019-05-06T13:50:03.094Z,0.20
2019-05-06T13:53:14.024Z,0.20
2019-05-06T13:56:19.628Z,0.10
2019-05-06T13:59:30.180Z,0.40
2019-05-06T14:02:53.152Z,0.10
2019-05-06T14:06:12.221Z,0.47
2019-05-06T14:09:33.344Z,0.20
2019-05-06T14:12:35.691Z,0.20
2019-05-06T14:15:42.198Z,0.30
2019-05-06T14:18:49.622Z,0.10
2019-05-06T14:21:56.991Z,0.10
2019-05-06T14:25:35.903Z,0.30
2019-05-06T14:28:49.962Z,0.20
2019-05-06T14:32:14.999Z,0.37
2019-05-06T14:35:23.117Z,0.30
2019-05-06T14:38:32.245Z,0.40
2019-05-06T14:41:53.497Z,0.23
2019-05-06T14:45:14.541Z,0.30
2019-05-06T14:48:28.812Z,0.20
2019-05-06T14:51:45.520Z,0.20
2019-05-06T14:55:09.151Z,0.30
2019-05-06T14:58:16.535Z,0.30
2019-05-06T15:01:24.021Z,0.20
2019-05-06T15:04:32.428Z,0.30
2019-05-06T15:07:42.126Z,0.20
2019-05-06T15:10:49.652Z,0.40
2019-05-06T15:14:07.258Z,0.33
2019-05-06T15:17:14.400Z,0.30
2019-05-06T15:20:34.122Z,0.30
2019-05-06T15:23:49.337Z,0.20
2019-05-06T15:26:55.541Z,0.13
2019-05-06T15:30:05.665Z,0.40
2019-05-06T15:33:13.676Z,0.27
2019-05-06T15:36:26.340Z,0.20
2019-05-06T15:39:48.934Z,0.50
2019-05-06T15:43:05.618Z,0.60
2019-05-06T15:46:22.867Z,0.30
2019-05-06T15:49:31.940Z,0.50
2019-05-06T15:52:39.279Z,0.30
2019-05-06T15:55:47.082Z,0.20
2019-05-06T15:59:04.069Z,0.20
2019-05-06T16:02:20.518Z,0.50
2019-05-06T16:05:28.018Z,0.30
2019-05-06T16:08:44.565Z,0.30
2019-05-06T16:12:02.942Z,0.40
2019-05-06T16:15:12.837Z,0.50
2019-05-06T16:18:19.700Z,0.23
2019-05-06T16:21:26.995Z,0.50
2019-05-06T16:24:43.157Z,0.33
2019-05-06T16:28:12.791Z,0.50
2019-05-06T16:31:28.567Z,0.40
2019-05-06T16:34:45.299Z,0.20
2019-05-06T16:37:52.682Z,0.50
2019-05-06T16:41:13.069Z,0.33
2019-05-06T16:44:30.225Z,0.23
2019-05-06T16:47:37.024Z,0.40
2019-05-06T16:50:45.943Z,0.47
2019-05-06T16:53:52.597Z,0.30
2019-05-06T16:57:07.375Z,0.50
2019-05-06T17:00:17.489Z,0.33
2019-05-06T17:03:46.052Z,0.37
2019-05-06T17:06:53.598Z,0.37
2019-05-06T17:10:11.872Z,0.20
2019-05-06T17:13:28.633Z,0.40
2019-05-06T17:16:45.296Z,0.40
2019-05-06T17:20:03.129Z,0.20
2019-05-06T17:23:13.004Z,0.30
2019-05-06T17:26:29.196Z,0.30
2019-05-06T17:30:04.909Z,0.40
2019-05-06T17:33:29.943Z,0.37
2019-05-06T17:36:54.864Z,0.30
2019-05-06T17:40:08.055Z,0.50
2019-05-06T17:43:13.034Z,0.30
2019-05-06T17:46:22.386Z,0.17
2019-05-06T17:49:30.030Z,0.40
2019-05-06T17:52:37.603Z,0.40
2019-05-06T17:55:45.187Z,0.30
2019-05-06T17:59:03.182Z,0.50
2019-05-06T18:02:14.925Z,0.37
2019-05-06T18:05:22.829Z,0.30
2019-05-06T18:08:45.331Z,0.20
2019-05-06T18:12:12.767Z,0.27
2019-05-06T18:15:29.433Z,0.17
2019-05-06T18:18:46.217Z,0.30
2019-05-06T18:22:05.322Z,0.20
2019-05-06T18:25:23.043Z,0.30
2019-05-06T18:28:32.685Z,0.50
2019-05-06T18:31:39.706Z,0.60
2019-05-06T18:34:56.550Z,0.50
2019-05-06T18:38:13.092Z,0.30
2019-05-06T18:41:23.407Z,0.77
2019-05-06T18:44:32.750Z,0.30
2019-05-06T18:47:39.384Z,0.40
2019-05-06T18:50:46.688Z,0.50
2019-05-06T18:54:03.816Z,1.17
2019-05-06T18:57:12.935Z,0.30
2019-05-06T19:00:18.960Z,0.47
2019-05-06T19:03:28.830Z,0.23
2019-05-06T19:06:36.229Z,0.40
2019-05-06T19:09:52.445Z,0.40
2019-05-06T19:13:22.197Z,0.40
2019-05-06T19:16:49.811Z,0.63
2019-05-06T19:19:57.682Z,0.60
2019-05-06T19:23:03.918Z,0.43
2019-05-06T19:26:12.374Z,0.30
2019-05-06T19:29:19.623Z,0.30
2019-05-06T19:32:26.408Z,0.10
2019-05-06T19:35:43.550Z,0.30
2019-05-06T19:38:49.822Z,0.40
2019-05-06T19:41:57.476Z,0.30
2019-05-06T19:45:17.369Z,0.20
2019-05-06T19:48:33.920Z,0.30
2019-05-06T19:51:42.825Z,0.27
2019-05-06T19:54:52.029Z,0.10
2019-05-06T19:57:59.391Z,0.20
2019-05-06T20:01:06.292Z,0.10
2019-05-06T20:04:13.762Z,0.10
2019-05-06T20:07:28.716Z,0.30
2019-05-06T20:11:02.200Z,0.20
2019-05-06T20:14:09.946Z,0.30
2019-05-06T20:17:28.455Z,0.40
2019-05-06T20:20:37.041Z,0.10
2019-05-06T20:23:44.434Z,0.40
2019-05-06T20:27:02.376Z,0.30
2019-05-06T20:30:09.951Z,0.20
2019-05-06T20:33:17.201Z,0.40
2019-05-06T20:36:24.520Z,0.40
2019-05-06T20:39:32.312Z,0.40
2019-05-06T20:42:39.035Z,0.30
2019-05-06T20:45:55.889Z,0.00
2019-05-06T20:49:13.227Z,0.30
2019-05-06T20:52:20.364Z,0.40
2019-05-06T20:55:27.912Z,0.30
2019-05-06T20:58:35.232Z,0.30
2019-05-06T21:01:42.642Z,0.20
2019-05-06T21:04:49.951Z,0.10
2019-05-06T21:08:06.854Z,0.20
2019-05-06T21:11:29.129Z,0.20
2019-05-06T21:14:44.293Z,0.10
2019-05-06T21:18:04.030Z,0.10
2019-05-06T21:21:20.402Z,0.20
2019-05-06T21:24:37.030Z,0.70
2019-05-06T21:27:59.763Z,0.37
2019-05-06T21:31:16.517Z,0.10
2019-05-06T21:34:33.301Z,0.37
2019-05-06T21:37:49.906Z,0.07
2019-05-06T21:41:06.664Z,0.10
2019-05-06T21:44:23.453Z,0.00
2019-05-06T21:47:46.569Z,0.00
2019-05-06T21:50:53.961Z,0.00
2019-05-06T21:54:02.872Z,0.13
2019-05-06T21:57:12.221Z,0.20
2019-05-06T22:00:23.377Z,0.10
2019-05-06T22:03:32.728Z,0.30
2019-05-06T22:06:38.725Z,0.10
2019-05-06T22:09:45.015Z,0.20
2019-05-06T22:12:52.758Z,0.30
2019-05-06T22:16:04.354Z,0.10
2019-05-06T22:19:09.381Z,0.20
2019-05-06T22:22:27.880Z,0.30
2019-05-06T22:25:49.475Z,0.20
2019-05-06T22:29:06.123Z,0.10
2019-05-06T22:32:23.289Z,0.20
2019-05-06T22:35:47.549Z,0.27
2019-05-06T22:39:05.536Z,0.20
2019-05-06T22:42:12.894Z,0.23
2019-05-06T22:45:22.185Z,0.27
2019-05-06T22:48:28.795Z,0.20
2019-05-06T22:51:36.164Z,0.10
2019-05-06T22:54:52.998Z,0.30
2019-05-06T22:58:11.793Z,0.30
2019-05-06T23:01:35.518Z,0.10
2019-05-06T23:04:43.920Z,0.20
2019-05-06T23:07:53.257Z,0.10
2019-05-06T23:11:00.586Z,0.40
2019-05-06T23:14:28.833Z,0.10
2019-05-06T23:17:35.900Z,0.10
2019-05-06T23:20:52.829Z,0.10
2019-05-06T23:24:13.133Z,0.20
2019-05-06T23:27:18.909Z,0.20
2019-05-06T23:30:26.412Z,0.20
2019-05-06T23:33:33.733Z,0.13
2019-05-06T23:37:27.191Z,0.20
2019-05-06T23:41:12.440Z,0.43
2019-05-06T23:45:06.426Z,0.50
2019-05-06T23:48:52.223Z,0.20
2019-05-06T23:52:34.984Z,0.30
2019-05-06T23:56:27.937Z,0.20
2019-05-06T23:59:35.352Z,0.20
